Warm Lake, Idaho
Current Conditions -  °F | °C
As of 4:51 PM on Saturday 25 Oct 2014 (Local Time) from KMYL Reporting Station
Broken Clouds Broken Clouds  
Wind Chill: 60°   Ceiling: 10000
Heat Index: 60°   Visibility: 10mi
Dew Point: 36°   Wind: 18mph
Humidity: 41%   Direction: 150°SSE
Pressure: 29.79"   Gusts: 28mph
Location:  44.4236°N, 115.8°W
Report Text: KMYL 252251Z AUTO 15016G24KT 10SM BKN100 BKN120 16/02 A2979 RMK AO2 PK WND 17027/2229 SLP076 T01560022
Loading
Personal Weather Stations






























Interactive Weather Map
Tropical Storm Tracking
New forecast layout! Learn more

10-Day Weather Forecast

Advertisements
Track Severe Weather on mobile